Terminal Aerodrome Forecast
Issued by NWS

Home | Current Version | Previous Version | Text Only | Print | Product List | Glossary On
Versions: 1 2 3 4 5 6 7 8 9 10 11 12 13 14 15 16 17 18 19 20 21 22 23 24 25 26 27 28 29 30 31
000
FTUS45 KPSR 211100
TAFIWA
TAF
KIWA 211121Z 2112/2212 11005KT P6SM FEW250
     FM212000 VRB05KT P6SM FEW250
      TEMPO 2121/2201 27005KT
     FM220300 13005KT P6SM FEW250
      AMD LTD TO CLD VIS AND WIND TIL 211300=

USA.gov is the U.S. government's official web portal to all federal, state and local government web resources and services.